Hauptseite
METAR-TAF:

METAR-TAF

Flughäfen :

Militärflugplatz Emmen

Emmen, Schweiz

Breite: 47-05-32N, Länge: 8-18-16E, Höhe: 426 m

Beobachtung

Neuester Wetterbericht von vor 20 Minuten, um 20:20 UTC
Wind 2 kt aus unterschiedlichen Richtungen
Temperatur 9°C
Luftfeuchtigkeit 53%
Luftdruck 1019 hPa
Sichtweite 10 km oder mehr
Durchbrochene Bewölkung in der Höhe von 6500 ft
Geschlossene Wolkendecke in der Höhe von 7600 ft

METAR: LSME 032020Z AUTO VRB02KT 9999NDV BKN065 OVC076 09/00 Q1019 RMK

Zeit: 22:40 (20:40 UTC)


TAF: fehlend

Wetterbeobachtungen und Prognosen von mehr als 4000 Flughäfen (METAR und TAF Bericht).

Die verfügbaren Stationen werden durch gelbe und rote Markierungen auf der Karte dargestellt.

Führen Sie die Maus auf sie, um den Namen der Station zu sehen.

Darauf klicken, um die Beobachtung von Wetterbeobachtungen und Prognosen zu sehen.

Um die Karte zu ändern : klicken Sie auf den grünen Tasten mit einem schwarzen Kreuz Zum Vergrößern, auf den grünen Button mit einem Gedankenstrich zu verkleinern, oder auf die grünen Pfeile für benachbarte Karten.


METAR-TAF: